Time;durP1;ratioP1;P1;durP2;ratioP2;P2;SDS_P1;SDS_P2;PMS_P1;PMS_P2;Temp;Humidity;BMP_temperature;BMP_pressure;BME280_temperature;BME280_humidity;BME280_pressure;Samples;Min_cycle;Max_cycle;Signal;HPM_P1;HPM_P2
2022/01/08 00:00:55;;;;;;;;;;;22.70;36.40;;;;;;5068294;28;19958;-67
2022/01/08 00:03:21;;;;;;;;;;;22.90;38.90;;;;;;5069560;28;19966;-69
2022/01/08 00:05:48;;;;;;;;;;;22.50;39.40;;;;;;5070343;28;20013;-71
2022/01/08 00:08:14;;;;;;;;;;;22.50;34.50;;;;;;5067467;28;19977;-68
2022/01/08 00:10:41;;;;;;;;;;;22.40;34.40;;;;;;5069589;28;19951;-69
2022/01/08 00:13:07;;;;;;;;;;;22.30;38.90;;;;;;5071183;28;19953;-68
2022/01/08 00:15:34;;;;;;;;;;;22.10;35.40;;;;;;5069799;28;19951;-67
2022/01/08 00:18:00;;;;;;;;;;;22.10;43.50;;;;;;5069050;28;19986;-67
2022/01/08 00:21:54;;;;;;;32.85;12.15;;;21.90;37.30;;;;;;5104882;27;20476;-67
2022/01/08 00:24:22;;;;;;;28.10;11.68;;;21.90;35.60;;;;;;5103230;28;20138;-66
2022/01/08 00:26:48;;;;;;;28.92;9.73;;;21.80;36.00;;;;;;5104866;28;20072;-65
2022/01/08 00:29:15;;;;;;;31.10;9.82;;;21.60;36.80;;;;;;5105876;28;20483;-63
2022/01/08 00:31:41;;;;;;;23.98;9.05;;;21.60;36.30;;;;;;5102964;28;20096;-64
2022/01/08 00:34:08;;;;;;;25.60;9.10;;;21.50;37.00;;;;;;5103250;28;20118;-65
2022/01/08 00:36:35;;;;;;;27.75;9.40;;;21.40;37.40;;;;;;5104527;28;20104;-65
2022/01/08 00:39:01;;;;;;;27.83;8.85;;;21.30;37.80;;;;;;5101388;28;20410;-63
2022/01/08 00:41:27;;;;;;;41.00;10.65;;;21.20;38.50;;;;;;5102920;28;20111;-66
2022/01/08 00:43:54;;;;;;;36.35;9.77;;;21.00;39.00;;;;;;5101486;28;20076;-65
2022/01/08 00:46:20;;;;;;;42.33;10.27;;;20.90;39.70;;;;;;5102712;28;20079;-67
2022/01/08 00:48:47;;;;;;;35.15;9.35;;;20.80;39.90;;;;;;5103024;28;20121;-64
2022/01/08 00:51:13;;;;;;;35.53;10.10;;;20.50;40.80;;;;;;5102296;28;20102;-64
2022/01/08 00:53:40;;;;;;;41.60;8.82;;;20.50;41.80;;;;;;5102847;28;20082;-64
2022/01/08 00:56:06;;;;;;;59.55;11.57;;;20.40;42.80;;;;;;5103442;28;20117;-63
2022/01/08 00:58:33;;;;;;;43.78;12.80;;;20.20;44.10;;;;;;5102958;28;20403;-64
2022/01/08 01:00:59;;;;;;;54.58;12.57;;;20.00;43.30;;;;;;5103009;28;20133;-64
2022/01/08 01:03:26;;;;;;;52.38;11.05;;;19.90;43.70;;;;;;5103307;28;20128;-65
2022/01/08 01:05:52;;;;;;;45.75;10.32;;;19.80;43.30;;;;;;5103511;28;20080;-66
2022/01/08 01:08:19;;;;;;;45.67;10.73;;;19.70;43.00;;;;;;5103938;28;20530;-67
2022/01/08 01:10:45;;;;;;;53.45;11.55;;;19.60;44.10;;;;;;5107221;28;20141;-62
2022/01/08 01:13:11;;;;;;;;;;;19.50;45.20;;;;;;5103288;28;20064;-66
2022/01/08 01:15:37;;;;;;;61.20;12.73;;;19.30;46.50;;;;;;5102922;28;20000;-65
2022/01/08 01:18:04;;;;;;;90.90;13.70;;;19.10;46.70;;;;;;5103268;28;20116;-65
2022/01/08 01:20:30;;;;;;;100.68;13.68;;;19.10;47.40;;;;;;5099410;28;20562;-67
2022/01/08 01:23:33;;;;;;;;;;;18.90;47.90;;;;;;5103095;28;20073;-67
2022/01/08 01:25:53;;;;;;;92.43;15.25;;;18.80;49.00;;;;;;5102342;28;19964;-65
2022/01/08 01:47:03;;;;;;;74.65;15.57;;;17.90;53.00;;;;;;5087629;28;20434;-66
2022/01/08 01:49:36;;;;;;;72.93;14.77;;;17.80;51.20;;;;;;5082941;28;20590;-63
2022/01/08 01:52:04;;;;;;;72.32;14.05;;;17.80;51.70;;;;;;5086108;28;20596;-66
2022/01/08 01:54:32;;;;;;;79.32;14.32;;;17.70;51.80;;;;;;5085455;28;20163;-63
2022/01/08 01:57:00;;;;;;;79.25;15.75;;;17.60;51.40;;;;;;5087703;28;20112;-63
2022/01/08 01:59:28;;;;;;;122.35;30.40;;;17.50;51.10;;;;;;5087379;28;20069;-64
2022/01/08 02:01:55;;;;;;;78.95;24.60;;;17.50;51.50;;;;;;5089772;28;20096;-64
2022/01/08 02:04:22;;;;;;;108.20;28.13;;;17.40;52.20;;;;;;5085074;28;20080;-65
2022/01/08 02:06:48;;;;;;;135.13;31.45;;;17.10;51.90;;;;;;5084918;28;20445;-65
2022/01/08 02:09:15;;;;;;;116.50;29.70;;;17.10;52.50;;;;;;5085645;28;20065;-64
2022/01/08 02:11:58;;;;;;;94.30;28.48;;;17.10;52.80;;;;;;5086728;28;20097;-65
2022/01/08 02:14:25;;;;;;;135.70;30.90;;;17.10;52.60;;;;;;5085376;28;20068;-66
2022/01/08 02:16:52;;;;;;;107.05;30.20;;;17.00;52.80;;;;;;5086613;28;20080;-65
2022/01/08 02:19:18;;;;;;;95.35;28.08;;;17.20;54.90;;;;;;5083912;28;20076;-64
2022/01/08 02:21:53;;;;;;;85.30;26.08;;;16.90;54.40;;;;;;5091844;28;20118;-64
2022/01/08 02:24:20;;;;;;;86.00;25.55;;;16.80;54.00;;;;;;5086833;28;20087;-66
2022/01/08 02:26:47;;;;;;;94.10;26.55;;;16.80;54.40;;;;;;5084760;28;20205;-67
2022/01/08 02:29:19;;;;;;;121.03;32.22;;;16.70;54.10;;;;;;5085896;28;20189;-66
2022/01/08 02:32:04;;;;;;;116.70;33.10;;;16.70;54.00;;;;;;5086386;28;20099;-65
2022/01/08 02:34:31;;;;;;;118.25;33.97;;;16.70;54.20;;;;;;5085584;28;20065;-65
2022/01/08 02:36:59;;;;;;;86.07;28.02;;;16.60;54.60;;;;;;5088253;28;20088;-65
2022/01/08 02:39:27;;;;;;;90.60;26.67;;;16.60;65.30;;;;;;5087923;28;20041;-66
2022/01/08 02:41:57;;;;;;;109.68;29.20;;;16.50;54.60;;;;;;5086220;28;20169;-66
2022/01/08 02:44:25;;;;;;;96.43;29.42;;;16.50;55.10;;;;;;5088120;28;20083;-65
2022/01/08 02:46:52;;;;;;;79.57;28.15;;;16.10;76.40;;;;;;5087280;28;20075;-64
2022/01/08 02:49:21;;;;;;;90.40;27.63;;;16.40;56.30;;;;;;5086414;28;20474;-64
2022/01/08 02:51:48;;;;;;;102.43;26.67;;;16.40;56.50;;;;;;5085693;28;20085;-64
2022/01/08 02:54:15;;;;;;;86.75;26.58;;;16.40;56.80;;;;;;5085220;28;21208;-64
2022/01/08 02:56:44;;;;;;;75.15;27.63;;;16.30;57.30;;;;;;5088036;28;20069;-64
2022/01/08 02:59:12;;;;;;;102.30;34.65;;;16.30;57.80;;;;;;5083970;28;20488;-64
2022/01/08 03:01:38;;;;;;;92.70;35.60;;;16.20;58.00;;;;;;5085028;28;20172;-65
2022/01/08 03:04:05;;;;;;;;;;;16.20;58.60;;;;;;5082812;28;20073;-64
2022/01/08 03:06:32;;;;;;;86.00;23.37;;;16.20;58.30;;;;;;5085761;28;20010;-64
2022/01/08 03:08:59;;;;;;;94.35;25.38;;;16.10;58.10;;;;;;5070738;28;20430;-65
2022/01/08 03:11:25;;;;;;;106.57;26.77;;;16.10;58.30;;;;;;5087345;28;20084;-65
2022/01/08 03:13:52;;;;;;;124.43;27.88;;;16.10;58.70;;;;;;5088313;28;21500;-64
2022/01/08 03:16:18;;;;;;;;;;;16.10;59.30;;;;;;5091071;28;20084;-64
2022/01/08 03:18:47;;;;;;;99.22;25.75;;;16.10;59.20;;;;;;5087537;28;20707;-63
2022/01/08 03:21:16;;;;;;;98.10;24.83;;;16.10;59.10;;;;;;5085519;28;20120;-63
2022/01/08 03:23:52;;;;;;;103.60;25.23;;;16.10;59.10;;;;;;5086001;28;20452;-64
2022/01/08 03:26:21;;;;;;;80.80;23.92;;;16.20;59.20;;;;;;5085624;28;20110;-63
2022/01/08 03:28:48;;;;;;;82.93;24.38;;;16.20;59.20;;;;;;5084637;28;20192;-62
2022/01/08 03:31:15;;;;;;;90.97;24.10;;;16.20;59.10;;;;;;5088254;28;20203;-63
2022/01/08 03:33:43;;;;;;;82.20;23.98;;;16.20;59.10;;;;;;5087620;28;20074;-63
2022/01/08 03:36:11;;;;;;;70.03;21.15;;;16.30;59.10;;;;;;5087695;28;20064;-63
2022/01/08 03:38:37;;;;;;;75.03;19.55;;;16.30;59.40;;;;;;5070853;28;20069;-62
2022/01/08 03:41:04;;;;;;;54.60;15.45;;;16.30;59.30;;;;;;5086505;28;20084;-64
2022/01/08 03:43:31;;;;;;;58.45;14.50;;;16.30;59.60;;;;;;5089455;28;20125;-64
2022/01/08 03:46:00;;;;;;;49.35;14.57;;;16.40;59.60;;;;;;5087435;28;20084;-63
2022/01/08 03:48:44;;;;;;;45.17;13.45;;;16.40;59.10;;;;;;5089242;28;20163;-64
2022/01/08 03:51:12;;;;;;;43.97;13.35;;;16.50;59.10;;;;;;5086643;28;21461;-63
2022/01/08 03:53:39;;;;;;;40.88;13.18;;;16.50;59.00;;;;;;5087355;28;20080;-63
2022/01/08 03:56:06;;;;;;;37.88;13.25;;;16.50;58.90;;;;;;5086920;28;20056;-63
2022/01/08 03:58:33;;;;;;;36.58;11.20;;;16.50;58.90;;;;;;5071603;28;20068;-63
2022/01/08 04:01:00;;;;;;;39.53;11.98;;;16.50;58.60;;;;;;5086638;28;20076;-63
2022/01/08 04:03:27;;;;;;;52.15;12.40;;;16.50;59.00;;;;;;5086418;28;20084;-63
2022/01/08 04:05:53;;;;;;;38.20;12.48;;;16.50;59.50;;;;;;5087943;28;20080;-65
2022/01/08 04:08:19;;;;;;;;;;;16.50;60.00;;;;;;5087817;28;20073;-64
2022/01/08 04:10:46;;;;;;;41.00;12.65;;;16.50;60.60;;;;;;5087191;28;19976;-64
2022/01/08 04:13:17;;;;;;;34.55;12.40;;;16.50;61.50;;;;;;5088378;28;20624;-65
2022/01/08 04:15:46;;;;;;;40.40;12.57;;;16.50;62.00;;;;;;5087121;28;20167;-64
2022/01/08 04:18:13;;;;;;;36.83;11.65;;;16.40;62.20;;;;;;5086063;28;20870;-63
2022/01/08 04:20:50;;;;;;;37.42;11.02;;;16.40;62.40;;;;;;5088083;28;20119;-65
2022/01/08 04:23:21;;;;;;;30.98;11.63;;;16.40;62.60;;;;;;5086698;28;20534;-63
2022/01/08 04:25:49;;;;;;;32.22;12.30;;;16.40;62.70;;;;;;5088056;28;20095;-63
2022/01/08 04:28:16;;;;;;;38.03;13.35;;;16.30;62.80;;;;;;5085886;28;20527;-64
2022/01/08 04:30:43;;;;;;;47.65;15.82;;;16.20;62.60;;;;;;5083927;28;20562;-64
2022/01/08 04:33:09;;;;;;;55.35;20.02;;;16.20;62.50;;;;;;5084521;28;20131;-64
2022/01/08 04:35:36;;;;;;;55.13;21.88;;;16.10;62.80;;;;;;5084633;28;20087;-64
2022/01/08 04:38:03;;;;;;;63.17;24.23;;;16.00;63.40;;;;;;5086490;28;20561;-66
2022/01/08 04:40:30;;;;;;;56.60;21.10;;;16.00;63.20;;;;;;5086203;28;20076;-63
2022/01/08 04:42:56;;;;;;;65.40;21.42;;;15.90;63.30;;;;;;5087453;28;20095;-66
2022/01/08 04:45:28;;;;;;;;;;;15.90;63.90;;;;;;5089170;28;20167;-65
2022/01/08 04:47:54;;;;;;;75.32;24.65;;;15.80;64.70;;;;;;5086357;28;19982;-64
2022/01/08 04:50:20;;;;;;;;;;;15.80;65.50;;;;;;5086079;28;20112;-63
2022/01/08 04:52:46;;;;;;;66.40;24.33;;;15.70;66.10;;;;;;5086513;28;20011;-63
2022/01/08 04:55:12;;;;;;;;;;;15.60;67.30;;;;;;5086725;28;20076;-64
2022/01/08 04:57:39;;;;;;;56.42;21.67;;;15.50;68.40;;;;;;5088402;28;20495;-66
2022/01/08 05:00:05;;;;;;;;;;;15.40;69.70;;;;;;5086711;28;20077;-65
2022/01/08 05:02:32;;;;;;;53.53;17.35;;;15.40;71.30;;;;;;5084365;28;19979;-68
2022/01/08 05:04:58;;;;;;;;;;;15.30;72.00;;;;;;5085241;28;20650;-63
2022/01/08 05:07:24;;;;;;;57.42;17.35;;;15.30;73.20;;;;;;5087595;28;20055;-65
2022/01/08 05:09:50;;;;;;;;;;;15.40;74.30;;;;;;5091076;28;20448;-67
2022/01/08 05:12:16;;;;;;;43.97;16.15;;;15.30;75.00;;;;;;5088612;28;19972;-66
2022/01/08 05:14:45;;;;;;;;;;;15.30;76.10;;;;;;5073154;28;20558;-67
2022/01/08 05:17:14;;;;;;;29.88;13.02;;;15.30;77.10;;;;;;5089760;28;20034;-65
2022/01/08 05:19:50;;;;;;;28.92;12.80;;;15.20;78.10;;;;;;5091892;28;20158;-65
2022/01/08 05:22:24;;;;;;;45.85;16.63;;;15.10;78.80;;;;;;5088067;28;20076;-67
2022/01/08 05:24:51;;;;;;;39.80;16.25;;;15.00;79.50;;;;;;5090969;28;20079;-68
2022/01/08 05:27:18;;;;;;;32.17;15.60;;;15.00;79.60;;;;;;5090218;28;20085;-68
2022/01/08 05:29:45;;;;;;;;;;;14.90;80.10;;;;;;5089844;28;20126;-69
2022/01/08 05:32:16;;;;;;;34.50;16.10;;;14.90;80.30;;;;;;5089679;28;19961;-66
2022/01/08 05:34:45;;;;;;;43.72;18.42;;;14.90;80.20;;;;;;5090538;28;20092;-69
2022/01/08 05:37:12;;;;;;;43.65;16.13;;;14.80;80.60;;;;;;5087559;28;20072;-66
2022/01/08 05:39:39;;;;;;;44.60;17.15;;;14.80;81.80;;;;;;5090497;28;20083;-66
2022/01/08 05:42:05;;;;;;;43.65;17.63;;;14.80;82.00;;;;;;5091877;28;20068;-66
2022/01/08 05:44:32;;;;;;;34.10;15.43;;;14.70;82.60;;;;;;5091095;28;20077;-66
2022/01/08 05:46:58;;;;;;;41.20;17.13;;;14.70;82.40;;;;;;5077479;28;20436;-67
2022/01/08 05:49:25;;;;;;;36.90;17.00;;;14.60;82.00;;;;;;5089684;28;20080;-66
2022/01/08 05:51:51;;;;;;;44.00;15.70;;;14.40;82.10;;;;;;5088589;28;20137;-67
2022/01/08 05:54:18;;;;;;;46.75;17.35;;;14.40;82.90;;;;;;5089197;28;20071;-66
2022/01/08 05:56:44;;;;;;;;;;;14.30;83.50;;;;;;5089288;28;20077;-67
2022/01/08 05:59:10;;;;;;;43.35;17.60;;;14.30;85.00;;;;;;5089418;28;19972;-69
2022/01/08 06:01:36;;;;;;;;;;;14.30;85.10;;;;;;5091526;28;20076;-67
2022/01/08 06:04:03;;;;;;;44.63;17.70;;;14.20;85.00;;;;;;5088642;28;19980;-65
2022/01/08 06:06:31;;;;;;;47.33;19.20;;;14.00;85.00;;;;;;5090777;28;20644;-65
2022/01/08 06:08:57;;;;;;;50.65;19.48;;;14.00;86.00;;;;;;5091356;28;20077;-67
2022/01/08 06:11:23;;;;;;;51.58;18.90;;;13.90;87.00;;;;;;5086926;28;20175;-66
2022/01/08 06:13:50;;;;;;;49.35;18.48;;;13.90;87.90;;;;;;5087835;28;20071;-68
2022/01/08 06:16:16;;;;;;;;;;;13.90;88.00;;;;;;5087977;28;20138;-67
2022/01/08 06:18:42;;;;;;;38.17;17.83;;;13.80;88.20;;;;;;5090106;28;19971;-66
2022/01/08 06:21:08;;;;;;;;;;;13.70;94.70;;;;;;5089183;28;20043;-66
2022/01/08 06:23:35;;;;;;;52.80;17.67;;;14.40;99.90;;;;;;5087206;28;20414;-66
2022/01/08 06:26:04;;;;;;;47.28;18.38;;;13.60;89.10;;;;;;5088789;28;20076;-64
2022/01/08 06:28:31;;;;;;;53.08;17.63;;;13.60;89.50;;;;;;5087572;28;20138;-66
2022/01/08 06:30:58;;;;;;;49.83;18.70;;;13.60;90.10;;;;;;5088570;28;20092;-65
2022/01/08 06:33:24;;;;;;;;;;;13.50;89.80;;;;;;5088147;28;20073;-64
2022/01/08 06:35:51;;;;;;;42.95;19.85;;;13.40;90.10;;;;;;5089977;28;20429;-67
2022/01/08 06:38:19;;;;;;;49.17;19.58;;;13.40;90.50;;;;;;5090623;28;20091;-64
2022/01/08 06:40:46;;;;;;;63.40;20.38;;;13.50;90.80;;;;;;5087199;28;20163;-66
2022/01/08 06:43:13;;;;;;;56.15;20.15;;;13.40;90.80;;;;;;5087877;28;20069;-67
2022/01/08 06:45:40;;;;;;;45.55;19.75;;;13.40;90.80;;;;;;5087204;28;20477;-67
2022/01/08 06:48:06;;;;;;;57.92;21.63;;;13.30;90.90;;;;;;5070813;28;20073;-67
2022/01/08 06:50:33;;;;;;;44.65;20.58;;;13.30;91.40;;;;;;5089855;28;20088;-68
2022/01/08 06:52:59;;;;;;;;;;;13.30;91.70;;;;;;5088290;28;20580;-64
2022/01/08 06:55:26;;;;;;;45.35;20.25;;;13.30;91.90;;;;;;5088989;28;20528;-66
2022/01/08 06:57:55;;;;;;;48.85;20.67;;;13.20;91.40;;;;;;5093626;28;20162;-66
2022/01/08 07:00:21;;;;;;;46.78;20.92;;;13.10;91.40;;;;;;5088368;28;20092;-66
2022/01/08 07:02:48;;;;;;;54.15;21.42;;;13.10;92.20;;;;;;5087298;28;20092;-66
2022/01/08 07:05:15;;;;;;;50.42;22.88;;;13.10;92.40;;;;;;5088828;28;20069;-67
2022/01/08 07:07:41;;;;;;;72.53;32.72;;;13.10;92.40;;;;;;5094580;28;20091;-67
2022/01/08 07:10:08;;;;;;;;;;;13.00;92.30;;;;;;5089068;28;20555;-67
2022/01/08 07:12:35;;;;;;;61.70;29.60;;;13.00;92.80;;;;;;5086898;28;19957;-66
2022/01/08 07:15:02;;;;;;;67.45;28.25;;;13.00;92.70;;;;;;5088130;28;20561;-66
2022/01/08 07:17:28;;;;;;;56.55;26.13;;;12.90;92.90;;;;;;5087053;28;20125;-64
2022/01/08 07:19:54;;;;;;;69.32;28.25;;;12.90;92.90;;;;;;5087804;28;20105;-65
2022/01/08 07:22:20;;;;;;;;;;;12.80;93.20;;;;;;5088383;28;20166;-66
2022/01/08 07:24:47;;;;;;;55.83;27.92;;;12.80;93.50;;;;;;5086632;28;21399;-66
2022/01/08 07:27:13;;;;;;;;;;;12.40;99.90;;;;;;5088684;28;20146;-67
2022/01/08 07:29:39;;;;;;;64.07;31.00;;;12.70;94.60;;;;;;5087672;28;19971;-65
2022/01/08 07:32:06;;;;;;;;;;;12.70;93.80;;;;;;5071426;28;20072;-65
2022/01/08 07:34:32;;;;;;;60.72;26.20;;;12.60;93.90;;;;;;5087264;28;19967;-64
2022/01/08 07:36:58;;;;;;;;;;;12.50;94.60;;;;;;5088419;28;20083;-65
2022/01/08 07:39:25;;;;;;;52.97;26.30;;;12.50;95.20;;;;;;5087978;28;20406;-64
2022/01/08 07:41:51;;;;;;;;;;;12.50;95.40;;;;;;5088591;28;20082;-65
2022/01/08 07:44:17;;;;;;;55.90;25.73;;;12.40;95.30;;;;;;5086907;28;19962;-64
2022/01/08 07:46:43;;;;;;;;;;;12.40;95.60;;;;;;5091551;28;20080;-65
2022/01/08 07:49:10;;;;;;;65.22;27.67;;;12.40;96.00;;;;;;5086885;28;19956;-66
2022/01/08 07:51:36;;;;;;;;;;;12.40;96.60;;;;;;5086965;28;20569;-65
2022/01/08 07:54:02;;;;;;;54.58;27.50;;;12.30;96.50;;;;;;5086569;28;19992;-64
2022/01/08 07:56:29;;;;;;;64.05;29.40;;;12.30;96.90;;;;;;5088202;28;20069;-65
2022/01/08 07:58:55;;;;;;;;;;;12.30;97.10;;;;;;5095915;28;20086;-66
2022/01/08 08:01:22;;;;;;;64.07;27.13;;;12.30;97.00;;;;;;5086852;28;20311;-65
2022/01/08 08:03:49;;;;;;;58.65;26.83;;;12.30;97.00;;;;;;5086977;28;20100;-64
2022/01/08 08:06:15;;;;;;;57.90;27.08;;;12.20;97.30;;;;;;5087046;28;20092;-65
2022/01/08 08:08:48;;;;;;;56.58;27.15;;;12.30;97.70;;;;;;5089348;28;20083;-66
2022/01/08 08:11:15;;;;;;;51.80;24.45;;;12.30;97.40;;;;;;5088704;28;20217;-64
2022/01/08 08:13:41;;;;;;;;;;;12.20;97.20;;;;;;5085851;28;20077;-65
2022/01/08 08:16:08;;;;;;;50.97;25.80;;;12.20;97.20;;;;;;5086995;28;19983;-64
2022/01/08 08:18:34;;;;;;;50.60;26.45;;;12.10;97.30;;;;;;5087612;28;20534;-65
2022/01/08 08:21:00;;;;;;;;;;;12.10;97.60;;;;;;5087958;28;20530;-64
2022/01/08 08:23:27;;;;;;;53.35;25.50;;;12.10;97.60;;;;;;5086952;28;20010;-65
2022/01/08 08:25:53;;;;;;;;;;;12.10;97.60;;;;;;5086340;28;20112;-65
2022/01/08 08:28:20;;;;;;;52.88;26.52;;;12.00;97.60;;;;;;5102091;28;19956;-64
2022/01/08 08:30:46;;;;;;;;;;;12.00;98.30;;;;;;5087942;28;20103;-65
2022/01/08 08:33:12;;;;;;;51.53;23.85;;;12.00;98.80;;;;;;5089284;28;19995;-65
2022/01/08 08:35:39;;;;;;;46.80;22.35;;;12.00;98.50;;;;;;5089929;28;20498;-64
2022/01/08 08:38:05;;;;;;;;;;;12.00;98.70;;;;;;5087202;28;20075;-64
2022/01/08 08:40:31;;;;;;;47.80;23.30;;;12.00;98.60;;;;;;5070782;28;20055;-63
2022/01/08 08:42:57;;;;;;;;;;;12.00;98.60;;;;;;5089607;28;20180;-63
2022/01/08 08:45:24;;;;;;;41.53;21.13;;;12.00;98.70;;;;;;5098081;28;20481;-65
2022/01/08 08:47:50;;;;;;;44.65;24.85;;;11.90;98.50;;;;;;5092329;28;20072;-66
2022/01/08 08:50:18;;;;;;;45.38;22.27;;;11.80;98.80;;;;;;5090850;28;20133;-66
2022/01/08 08:52:44;;;;;;;45.70;22.42;;;11.80;99.10;;;;;;5090411;28;20085;-64
2022/01/08 08:55:13;;;;;;;;;;;11.90;99.30;;;;;;5091792;28;20523;-66
2022/01/08 08:57:40;;;;;;;37.28;21.73;;;11.90;99.10;;;;;;5093623;28;19964;-65
2022/01/08 09:00:07;;;;;;;39.83;21.05;;;11.80;99.10;;;;;;5089722;28;20513;-65
2022/01/08 09:02:33;;;;;;;35.47;20.88;;;11.80;99.50;;;;;;5090359;28;20546;-65
2022/01/08 09:04:59;;;;;;;;;;;11.70;99.20;;;;;;5090990;28;20077;-64
2022/01/08 09:07:26;;;;;;;38.42;20.25;;;11.60;99.70;;;;;;5090818;28;19979;-64
2022/01/08 09:09:52;;;;;;;45.42;20.52;;;11.60;99.90;;;;;;5089352;28;20081;-64
2022/01/08 09:12:18;;;;;;;;;;;11.70;99.90;;;;;;5089753;28;20081;-65
2022/01/08 09:14:45;;;;;;;46.67;21.88;;;11.70;99.90;;;;;;5091967;28;20762;-64
2022/01/08 09:17:12;;;;;;;;;;;11.70;99.90;;;;;;5089673;28;20073;-66
2022/01/08 09:19:38;;;;;;;45.67;22.63;;;11.80;99.90;;;;;;5090823;28;20474;-64
2022/01/08 09:22:05;;;;;;;43.60;23.65;;;11.80;99.90;;;;;;5089905;28;20076;-63
2022/01/08 09:24:33;;;;;;;33.47;21.73;;;11.80;99.90;;;;;;5088855;28;20077;-65
2022/01/08 09:27:00;;;;;;;41.67;23.15;;;11.80;99.90;;;;;;5093510;28;20518;-64
2022/01/08 09:29:26;;;;;;;;;;;11.80;99.90;;;;;;5090140;28;20112;-66
2022/01/08 09:31:52;;;;;;;50.92;24.58;;;11.90;99.90;;;;;;5090348;28;20027;-64
2022/01/08 09:34:19;;;;;;;50.95;25.20;;;11.90;99.90;;;;;;5089850;28;20070;-64
2022/01/08 09:36:46;;;;;;;46.83;25.25;;;12.00;99.90;;;;;;5090003;28;20089;-66
2022/01/08 09:39:13;;;;;;;46.35;24.33;;;12.00;99.90;;;;;;5087770;28;20081;-66
2022/01/08 09:41:40;;;;;;;43.85;25.20;;;11.90;99.90;;;;;;5088886;28;20080;-66
2022/01/08 09:44:06;;;;;;;;;;;12.00;99.90;;;;;;5090551;28;20092;-64
2022/01/08 09:46:33;;;;;;;50.60;28.30;;;11.90;99.90;;;;;;5088290;28;19957;-65
2022/01/08 09:48:59;;;;;;;46.28;25.58;;;11.90;99.90;;;;;;5089884;28;20553;-64
2022/01/08 09:51:26;;;;;;;49.03;26.98;;;11.90;99.90;;;;;;5071277;28;20130;-65
2022/01/08 09:53:54;;;;;;;48.72;27.90;;;11.90;99.90;;;;;;5088914;28;20073;-66
2022/01/08 09:56:25;;;;;;;59.70;29.58;;;12.00;99.90;;;;;;5090509;28;20049;-65
2022/01/08 09:58:52;;;;;;;46.97;28.00;;;12.00;99.90;;;;;;5090908;28;20088;-65
2022/01/08 10:01:51;;;;;;;55.20;29.30;;;11.90;99.90;;;;;;5090057;28;20122;-64
2022/01/08 10:04:24;;;;;;;61.63;29.73;;;11.90;99.90;;;;;;5095209;28;20461;-65
2022/01/08 10:06:51;;;;;;;51.47;27.08;;;11.90;99.90;;;;;;5088437;28;20069;-65
2022/01/08 10:09:17;;;;;;;58.35;29.50;;;11.90;99.90;;;;;;5090663;28;20093;-67
2022/01/08 10:11:49;;;;;;;;;;;11.90;99.90;;;;;;5101803;28;20101;-65
2022/01/08 10:14:28;;;;;;;52.30;30.10;;;11.90;99.90;;;;;;5089267;28;19960;-64
2022/01/08 10:17:13;;;;;;;55.00;27.20;;;11.90;99.90;;;;;;5089135;28;20088;-67
2022/01/08 10:19:41;;;;;;;53.17;27.85;;;11.80;99.90;;;;;;5089079;28;20081;-65
2022/01/08 10:22:16;;;;;;;38.70;25.20;;;11.90;99.90;;;;;;5090425;28;20077;-64
2022/01/08 10:24:42;;;;;;;47.78;27.00;;;11.90;99.90;;;;;;5088725;28;20076;-66
2022/01/08 10:27:09;;;;;;;44.60;26.30;;;11.90;99.90;;;;;;5088717;28;20411;-65
2022/01/08 10:29:35;;;;;;;;;;;11.90;99.90;;;;;;5088012;28;20592;-65
2022/01/08 10:32:04;;;;;;;51.20;27.42;;;11.90;99.90;;;;;;5088216;28;19980;-66
2022/01/08 10:34:31;;;;;;;45.42;26.38;;;12.00;99.90;;;;;;5090211;28;20065;-65
2022/01/08 10:37:02;;;;;;;58.42;27.02;;;12.00;99.90;;;;;;5088470;28;20083;-64
2022/01/08 10:39:31;;;;;;;46.10;26.40;;;12.10;99.90;;;;;;5088405;28;20183;-63
2022/01/08 10:42:17;;;;;;;46.72;25.23;;;12.00;99.90;;;;;;5087882;28;20083;-64
2022/01/08 10:44:50;;;;;;;41.10;24.15;;;12.00;99.90;;;;;;5087903;28;20083;-64
2022/01/08 10:47:20;;;;;;;41.60;23.77;;;11.90;99.90;;;;;;5097059;28;20076;-66
2022/01/08 10:49:47;;;;;;;42.28;25.13;;;11.90;99.90;;;;;;5089121;28;20523;-63
2022/01/08 10:52:17;;;;;;;41.92;26.33;;;11.90;99.90;;;;;;5089152;28;20515;-63
2022/01/08 10:54:53;;;;;;;49.88;28.02;;;12.00;99.90;;;;;;5088926;28;20118;-64
2022/01/08 10:57:20;;;;;;;48.20;27.00;;;12.00;99.90;;;;;;5092120;28;20072;-64
2022/01/08 10:59:54;;;;;;;41.10;25.48;;;12.00;99.90;;;;;;5090340;28;20114;-63
2022/01/08 11:02:26;;;;;;;49.20;26.33;;;12.10;99.90;;;;;;5087301;28;20578;-65
2022/01/08 11:04:54;;;;;;;40.60;23.63;;;11.90;99.90;;;;;;5087736;28;20078;-65
2022/01/08 11:07:34;;;;;;;49.05;27.10;;;11.90;99.90;;;;;;5087349;28;20068;-62
2022/01/08 11:10:07;;;;;;;40.88;24.95;;;12.00;99.90;;;;;;5088114;28;20233;-64
2022/01/08 11:12:44;;;;;;;44.05;26.95;;;11.90;99.90;;;;;;5087802;28;20080;-65
2022/01/08 11:17:44;;;;;;;42.10;26.77;;;11.90;99.90;;;;;;5088135;28;19964;-65
2022/01/08 11:20:19;;;;;;;45.40;25.08;;;11.70;99.90;;;;;;5088000;28;20120;-63
2022/01/08 11:22:50;;;;;;;43.63;26.58;;;11.60;99.90;;;;;;5088775;28;20071;-65
2022/01/08 11:25:23;;;;;;;52.33;25.98;;;11.70;99.90;;;;;;5089806;28;20088;-65
2022/01/08 11:28:10;;;;;;;40.47;24.05;;;11.60;99.90;;;;;;5087075;28;20761;-65
2022/01/08 11:30:38;;;;;;;40.17;22.75;;;11.60;99.90;;;;;;5086643;28;20164;-64
2022/01/08 11:33:23;;;;;;;37.00;21.88;;;11.70;99.90;;;;;;5087143;28;20158;-66
2022/01/08 11:35:51;;;;;;;38.10;22.75;;;11.40;99.90;;;;;;5087713;28;20069;-66
2022/01/08 11:38:20;;;;;;;29.83;20.27;;;11.30;99.90;;;;;;5086585;28;20072;-65
2022/01/08 11:40:50;;;;;;;33.42;24.65;;;11.40;99.90;;;;;;5091617;28;20547;-65
2022/01/08 11:43:20;;;;;;;31.10;23.20;;;11.20;99.90;;;;;;5088246;28;20069;-66
2022/01/08 11:45:48;;;;;;;34.92;23.75;;;11.10;99.90;;;;;;5086512;28;20076;-65
2022/01/08 11:48:17;;;;;;;28.20;19.80;;;11.20;99.90;;;;;;5087247;28;20541;-65
2022/01/08 11:50:53;;;;;;;27.63;17.70;;;11.10;99.90;;;;;;5086664;28;20088;-64
2022/01/08 11:53:25;;;;;;;23.85;16.98;;;11.20;99.90;;;;;;5085114;28;20570;-66
2022/01/08 11:56:00;;;;;;;26.08;17.42;;;11.30;99.90;;;;;;5086596;28;20084;-64
2022/01/08 11:58:30;;;;;;;23.63;16.40;;;11.30;99.90;;;;;;5090863;28;20076;-64
2022/01/08 12:01:04;;;;;;;23.95;17.20;;;11.40;99.90;;;;;;5085735;28;20083;-63
2022/01/08 12:03:37;;;;;;;23.20;16.80;;;11.30;99.90;;;;;;5085970;28;20089;-63
2022/01/08 12:06:33;;;;;;;23.02;16.25;;;11.30;99.90;;;;;;5087398;28;20192;-67
2022/01/08 12:09:15;;;;;;;23.67;16.77;;;11.30;99.90;;;;;;5087168;28;20195;-66
2022/01/08 12:12:00;;;;;;;19.63;14.52;;;11.30;99.90;;;;;;5085817;28;20096;-64
2022/01/08 12:14:38;;;;;;;19.35;13.68;;;11.30;99.90;;;;;;5085636;28;20434;-64
2022/01/08 12:17:20;;;;;;;24.50;15.77;;;11.30;99.90;;;;;;5086045;28;20441;-66
2022/01/08 12:19:58;;;;;;;22.02;15.32;;;11.30;99.90;;;;;;5088247;28;20064;-65
2022/01/08 12:22:24;;;;;;;19.90;13.93;;;11.20;99.90;;;;;;5086952;28;20159;-66
2022/01/08 12:25:00;;;;;;;18.48;13.35;;;11.30;99.90;;;;;;5086733;28;20075;-67
2022/01/08 12:27:46;;;;;;;18.27;12.32;;;11.30;99.90;;;;;;5087076;28;20163;-65
2022/01/08 12:30:18;;;;;;;20.30;14.07;;;11.10;99.90;;;;;;5086346;28;20085;-64
2022/01/08 12:32:49;;;;;;;20.73;14.40;;;11.40;99.90;;;;;;5087164;28;20538;-65
2022/01/08 12:35:23;;;;;;;20.70;13.98;;;11.40;99.90;;;;;;5085888;28;20076;-66
2022/01/08 12:37:51;;;;;;;22.90;14.73;;;11.40;99.90;;;;;;5088198;28;20060;-67
2022/01/08 12:40:41;;;;;;;21.38;13.60;;;11.40;99.90;;;;;;5085689;28;20115;-65
2022/01/08 12:43:34;;;;;;;19.42;13.70;;;11.40;99.90;;;;;;5086962;28;20502;-65
2022/01/08 12:46:23;;;;;;;20.83;12.75;;;11.30;99.90;;;;;;5085765;28;20145;-65
2022/01/08 12:49:09;;;;;;;24.45;13.73;;;11.30;99.90;;;;;;5085063;28;20088;-66
2022/01/08 12:51:44;;;;;;;20.70;13.68;;;11.30;99.90;;;;;;5086166;28;20469;-62
2022/01/08 12:54:13;;;;;;;20.52;12.80;;;11.30;99.90;;;;;;5086940;28;20077;-64
2022/01/08 12:56:53;;;;;;;20.50;13.63;;;11.30;99.90;;;;;;5087339;28;20487;-64
2022/01/08 12:59:21;;;;;;;19.75;13.85;;;11.30;99.90;;;;;;5084759;28;20563;-65
2022/01/08 13:01:49;;;;;;;19.13;13.90;;;11.40;99.90;;;;;;5087501;28;20469;-64
2022/01/08 13:04:19;;;;;;;19.85;13.75;;;11.40;99.90;;;;;;5070091;28;20105;-65
2022/01/08 13:06:47;;;;;;;22.02;14.23;;;11.30;99.90;;;;;;5086450;28;20068;-64
2022/01/08 13:09:13;;;;;;;19.77;14.20;;;11.30;99.90;;;;;;5087005;28;20123;-65
2022/01/08 13:11:42;;;;;;;21.13;14.70;;;11.20;99.90;;;;;;5085578;28;20085;-64
2022/01/08 13:14:16;;;;;;;23.52;15.93;;;11.20;99.90;;;;;;5085869;28;20494;-64